createdAt,value
2018-06-01T00:02:10.141Z,7.60
2018-06-01T00:04:37.565Z,7.70
2018-06-01T00:07:05.687Z,7.90
2018-06-01T00:09:33.108Z,8.02
2018-06-01T00:12:01.312Z,9.57
2018-06-01T00:14:28.747Z,7.40
2018-06-01T00:16:57.051Z,8.85
2018-06-01T00:19:24.470Z,7.67
2018-06-01T00:21:52.748Z,8.13
2018-06-01T00:24:20.960Z,8.55
2018-06-01T00:26:48.403Z,8.60
2018-06-01T00:29:15.836Z,8.55
2018-06-01T00:31:44.072Z,8.40
2018-06-01T00:34:11.509Z,7.80
2018-06-01T00:36:38.952Z,9.00
2018-06-01T00:39:06.398Z,7.85
2018-06-01T00:41:33.824Z,7.85
2018-06-01T00:44:02.041Z,7.47
2018-06-01T00:46:29.485Z,7.87
2018-06-01T00:48:56.917Z,8.50
2018-06-01T00:51:24.345Z,7.55
2018-06-01T00:53:51.897Z,7.90
2018-06-01T00:56:19.338Z,7.20
2018-06-01T00:58:46.783Z,7.47
2018-06-01T01:01:14.209Z,7.35
2018-06-01T01:06:15.577Z,8.05
2018-06-01T01:08:43.017Z,6.78
2018-06-01T01:11:11.211Z,7.57
2018-06-01T01:13:38.645Z,7.37
2018-06-01T01:16:06.888Z,7.78
2018-06-01T01:18:34.344Z,9.43
2018-06-01T01:21:01.773Z,8.30
2018-06-01T01:23:29.214Z,8.40
2018-06-01T01:25:56.636Z,8.98
2018-06-01T01:28:24.853Z,8.73
2018-06-01T01:30:52.413Z,8.40
2018-06-01T01:33:19.829Z,8.30
2018-06-01T01:35:48.042Z,7.55
2018-06-01T01:38:15.483Z,8.20
2018-06-01T01:40:47.853Z,9.55
2018-06-01T01:43:15.326Z,7.30
2018-06-01T01:45:42.751Z,7.97
2018-06-01T01:48:10.959Z,10.20
2018-06-01T01:50:38.397Z,7.25
2018-06-01T01:53:05.851Z,7.32
2018-06-01T01:55:34.049Z,7.47
2018-06-01T01:58:01.489Z,8.43
2018-06-01T02:00:28.924Z,7.10
2018-06-01T02:02:57.125Z,7.25
2018-06-01T02:05:24.571Z,7.50
2018-06-01T02:07:51.997Z,7.95
2018-06-01T02:10:20.209Z,8.95
2018-06-01T02:12:47.641Z,8.10
2018-06-01T02:15:15.846Z,7.50
2018-06-01T02:17:43.276Z,7.45
2018-06-01T02:20:11.491Z,7.30
2018-06-01T02:22:38.921Z,7.07
2018-06-01T02:25:06.364Z,7.00
2018-06-01T02:27:34.575Z,7.15
2018-06-01T02:30:02.017Z,7.40
2018-06-01T02:32:29.469Z,7.68
2018-06-01T02:34:56.917Z,8.88
2018-06-01T02:37:24.412Z,8.38
2018-06-01T02:39:51.853Z,7.17
2018-06-01T02:42:19.319Z,7.65
2018-06-01T02:44:46.777Z,7.40
2018-06-01T02:47:14.224Z,7.60
2018-06-01T02:49:41.783Z,7.57
2018-06-01T02:52:09.195Z,7.85
2018-06-01T02:54:37.412Z,10.32
2018-06-01T02:57:04.848Z,7.35
2018-06-01T02:59:32.310Z,7.47
2018-06-01T03:01:59.731Z,7.53
2018-06-01T03:04:27.970Z,7.75
2018-06-01T03:07:10.681Z,9.10
2018-06-01T03:09:38.122Z,7.60
2018-06-01T03:12:05.576Z,7.35
2018-06-01T03:14:33.017Z,8.23
2018-06-01T03:17:00.465Z,9.85
2018-06-01T03:19:27.900Z,7.35
2018-06-01T03:21:56.117Z,8.98
2018-06-01T03:24:23.562Z,7.57
2018-06-01T03:26:50.988Z,7.47
2018-06-01T03:29:19.192Z,7.43
2018-06-01T03:31:46.652Z,7.80
2018-06-01T03:34:14.097Z,7.82
2018-06-01T03:36:41.524Z,8.15
2018-06-01T03:39:09.734Z,7.15
2018-06-01T03:41:37.168Z,7.80
2018-06-01T03:44:05.385Z,8.23
2018-06-01T03:46:32.825Z,8.33
2018-06-01T03:49:00.261Z,8.80
2018-06-01T03:51:27.697Z,7.75
2018-06-01T03:53:55.901Z,8.70
2018-06-01T03:56:23.383Z,7.60
2018-06-01T03:58:50.820Z,7.75
2018-06-01T04:01:18.252Z,7.32
2018-06-01T04:03:45.696Z,7.22
2018-06-01T04:06:13.129Z,7.32
2018-06-01T04:08:40.565Z,7.70
2018-06-01T04:11:08.015Z,7.95
2018-06-01T04:13:35.437Z,8.15
2018-06-01T04:16:02.894Z,8.98
2018-06-01T04:18:31.112Z,7.45
2018-06-01T04:20:58.649Z,7.62
2018-06-01T04:23:26.076Z,9.25
2018-06-01T04:25:54.333Z,7.93
2018-06-01T04:28:21.790Z,9.32
2018-06-01T04:30:49.236Z,7.65
2018-06-01T04:33:16.671Z,7.07
2018-06-01T04:35:44.207Z,8.18
2018-06-01T04:38:11.624Z,7.72
2018-06-01T04:40:39.838Z,8.40
2018-06-01T04:43:07.269Z,7.35
2018-06-01T04:45:35.460Z,8.70
2018-06-01T04:48:02.885Z,8.88
2018-06-01T04:50:31.094Z,7.33
2018-06-01T04:52:58.524Z,7.65
2018-06-01T04:55:26.725Z,8.00
2018-06-01T04:57:54.149Z,7.60
2018-06-01T05:00:22.364Z,10.98
2018-06-01T05:02:49.832Z,30.95
2018-06-01T05:05:17.272Z,8.75
2018-06-01T05:07:44.700Z,9.05
2018-06-01T05:10:12.161Z,20.15
2018-06-01T05:12:39.589Z,13.45
2018-06-01T05:15:07.094Z,16.17
2018-06-01T05:17:34.550Z,17.50
2018-06-01T05:20:01.994Z,11.73
2018-06-01T05:22:29.465Z,8.13
2018-06-01T05:24:56.901Z,12.32
2018-06-01T05:27:24.336Z,10.65
2018-06-01T05:29:52.549Z,13.13
2018-06-01T05:32:20.109Z,7.50
2018-06-01T05:34:47.539Z,7.10
2018-06-01T05:37:15.840Z,8.60
2018-06-01T05:39:43.336Z,9.47
2018-06-01T05:42:10.761Z,10.52
2018-06-01T05:44:38.188Z,9.97
2018-06-01T05:47:05.641Z,9.63
2018-06-01T05:49:33.834Z,10.73
2018-06-01T05:52:01.334Z,12.43
2018-06-01T05:54:28.846Z,11.20
2018-06-01T05:56:56.214Z,11.35
2018-06-01T05:59:23.700Z,9.77
2018-06-01T06:01:51.128Z,8.23
2018-06-01T06:04:18.576Z,8.23
2018-06-01T06:06:46.033Z,8.00
2018-06-01T06:09:13.469Z,16.67
2018-06-01T06:11:41.680Z,7.68
2018-06-01T06:14:09.128Z,7.87
2018-06-01T06:16:36.678Z,12.83
2018-06-01T06:19:04.101Z,7.37
2018-06-01T06:21:32.410Z,16.77
2018-06-01T06:23:59.866Z,8.32
2018-06-01T06:26:27.322Z,8.77
2018-06-01T06:28:54.801Z,13.85
2018-06-01T06:31:22.309Z,10.35
2018-06-01T06:33:49.720Z,8.82
2018-06-01T06:36:17.187Z,7.95
2018-06-01T06:38:44.745Z,10.20
2018-06-01T06:41:12.185Z,7.93
2018-06-01T06:43:39.640Z,15.88
2018-06-01T06:46:07.097Z,8.75
2018-06-01T06:48:34.561Z,11.48
2018-06-01T06:51:02.096Z,9.27
2018-06-01T06:53:29.561Z,10.70
2018-06-01T06:55:57.005Z,8.02
2018-06-01T06:58:24.541Z,15.63
2018-06-01T07:00:52.753Z,8.10
2018-06-01T07:03:20.299Z,12.68
2018-06-01T07:05:47.750Z,9.63
2018-06-01T07:08:15.212Z,9.90
2018-06-01T07:10:42.645Z,9.38
2018-06-01T07:13:10.846Z,9.50
2018-06-01T07:15:38.310Z,16.85
2018-06-01T07:18:05.745Z,8.10
2018-06-01T07:20:33.172Z,8.38
2018-06-01T07:23:02.224Z,13.80
2018-06-01T07:25:29.682Z,9.18
2018-06-01T07:27:57.236Z,9.40
2018-06-01T07:30:24.674Z,12.45
2018-06-01T07:32:52.291Z,8.30
2018-06-01T07:35:19.736Z,12.55
2018-06-01T07:37:47.173Z,7.93
2018-06-01T07:40:14.676Z,20.73
2018-06-01T07:42:42.869Z,14.00
2018-06-01T07:45:10.316Z,16.27
2018-06-01T07:47:37.752Z,17.00
2018-06-01T07:50:06.068Z,12.90
2018-06-01T07:52:33.499Z,14.52
2018-06-01T07:55:00.937Z,10.02
2018-06-01T07:57:28.409Z,9.55
2018-06-01T07:59:56.856Z,17.25
2018-06-01T08:02:24.252Z,12.65
2018-06-01T08:04:51.692Z,10.80
2018-06-01T08:07:19.913Z,17.05
2018-06-01T08:09:47.340Z,8.13
2018-06-01T08:12:14.852Z,14.85
2018-06-01T08:14:42.438Z,10.25
2018-06-01T08:17:09.837Z,14.63
2018-06-01T08:19:37.389Z,12.53
2018-06-01T08:22:04.832Z,12.18
2018-06-01T08:24:32.301Z,9.85
2018-06-01T08:26:59.744Z,8.88
2018-06-01T08:29:27.971Z,9.60
2018-06-01T08:31:55.492Z,12.15
2018-06-01T08:34:22.923Z,12.68
2018-06-01T08:36:51.174Z,14.50
2018-06-01T08:39:23.447Z,11.73
2018-06-01T08:41:50.874Z,11.65
2018-06-01T08:44:18.296Z,11.20
2018-06-01T08:46:45.797Z,9.05
2018-06-01T08:49:13.172Z,16.45
2018-06-01T08:51:41.465Z,13.90
2018-06-01T08:54:09.669Z,10.43
2018-06-01T08:56:37.117Z,11.27
2018-06-01T08:59:04.610Z,12.05
2018-06-01T09:01:32.035Z,13.02
2018-06-01T09:03:59.518Z,10.93
2018-06-01T09:06:27.021Z,12.88
2018-06-01T09:08:55.438Z,11.27
2018-06-01T09:11:22.991Z,11.40
2018-06-01T09:13:50.430Z,9.73
2018-06-01T09:16:17.989Z,13.20
2018-06-01T09:18:45.661Z,10.10
2018-06-01T09:21:13.118Z,12.40
2018-06-01T09:23:40.566Z,13.60
2018-06-01T09:26:08.059Z,11.48
2018-06-01T09:28:35.511Z,13.23
2018-06-01T09:31:02.952Z,10.63
2018-06-01T09:33:30.409Z,10.30
2018-06-01T09:35:57.864Z,10.27
2018-06-01T09:38:25.304Z,9.82
2018-06-01T09:40:52.785Z,19.83
2018-06-01T09:43:20.264Z,19.73
2018-06-01T09:45:47.733Z,11.45
2018-06-01T09:48:15.962Z,11.73
2018-06-01T09:50:43.421Z,12.52
2018-06-01T09:53:10.860Z,13.15
2018-06-01T09:55:38.311Z,11.52
2018-06-01T09:58:06.606Z,10.55
2018-06-01T10:00:39.884Z,16.62
2018-06-01T10:03:07.341Z,14.73
2018-06-01T10:05:34.773Z,16.48
2018-06-01T10:08:03.019Z,10.85
2018-06-01T10:10:36.429Z,15.75
2018-06-01T10:13:03.964Z,11.50
2018-06-01T10:15:31.439Z,11.57
2018-06-01T10:17:58.887Z,24.02
2018-06-01T10:20:26.320Z,12.98
2018-06-01T10:22:53.783Z,12.35
2018-06-01T10:25:21.339Z,11.73
2018-06-01T10:27:48.779Z,12.10
2018-06-01T10:30:16.216Z,12.15
2018-06-01T10:32:43.721Z,14.00
2018-06-01T10:35:11.321Z,11.75
2018-06-01T10:37:38.776Z,11.10
2018-06-01T10:40:06.987Z,13.10
2018-06-01T10:42:34.468Z,15.10
2018-06-01T10:45:01.933Z,12.50
2018-06-01T10:47:29.389Z,16.87
2018-06-01T10:49:56.822Z,17.73
2018-06-01T10:52:24.293Z,11.82
2018-06-01T10:54:52.317Z,20.00
2018-06-01T10:57:19.793Z,11.77
2018-06-01T10:59:47.237Z,15.07
2018-06-01T11:02:14.676Z,12.00
2018-06-01T11:04:42.916Z,13.85
2018-06-01T11:07:10.357Z,15.70
2018-06-01T11:09:37.906Z,13.35
2018-06-01T11:12:05.347Z,14.80
2018-06-01T11:14:32.873Z,14.80
2018-06-01T11:17:01.008Z,12.50
2018-06-01T11:19:28.472Z,14.13
2018-06-01T11:21:55.939Z,17.50
2018-06-01T11:24:23.493Z,13.93
2018-06-01T11:26:50.954Z,14.93
2018-06-01T11:29:18.397Z,14.82
2018-06-01T11:31:45.862Z,15.02
2018-06-01T11:34:13.294Z,12.82
2018-06-01T11:36:40.728Z,20.42
2018-06-01T11:39:08.157Z,15.83
2018-06-01T11:41:36.368Z,12.23
2018-06-01T11:44:03.847Z,13.13
2018-06-01T11:46:31.390Z,14.48
2018-06-01T11:48:58.877Z,19.40
2018-06-01T11:51:26.322Z,15.50
2018-06-01T11:53:53.750Z,20.85
2018-06-01T11:56:21.234Z,14.63
2018-06-01T11:58:48.704Z,13.93
2018-06-01T12:01:16.148Z,29.65
2018-06-01T12:03:43.613Z,14.65
2018-06-01T12:06:11.053Z,13.90
2018-06-01T12:08:38.489Z,13.93
2018-06-01T12:11:05.959Z,20.23
2018-06-01T12:13:33.516Z,22.85
2018-06-01T12:16:00.937Z,15.57
2018-06-01T12:18:28.410Z,13.88
2018-06-01T12:20:55.849Z,20.73
2018-06-01T12:23:24.089Z,13.40
2018-06-01T12:25:52.364Z,13.20
2018-06-01T12:28:19.809Z,17.87
2018-06-01T12:30:48.138Z,16.42
2018-06-01T12:33:16.427Z,14.98
2018-06-01T12:35:43.879Z,14.63
2018-06-01T12:38:11.362Z,13.82
2018-06-01T12:40:38.825Z,17.00
2018-06-01T12:43:06.262Z,16.27
2018-06-01T12:45:33.744Z,25.83
2018-06-01T12:48:01.198Z,14.40
2018-06-01T12:50:28.652Z,17.35
2018-06-01T12:52:56.098Z,19.60
2018-06-01T12:55:23.565Z,16.80
2018-06-01T12:57:50.997Z,17.80
2018-06-01T13:00:18.447Z,15.80
2018-06-01T13:02:45.947Z,15.13
2018-06-01T13:05:13.397Z,23.80
2018-06-01T13:07:40.856Z,26.80
2018-06-01T13:10:08.302Z,14.80
2018-06-01T13:12:35.848Z,15.80
2018-06-01T13:15:03.339Z,14.38
2018-06-01T13:17:30.786Z,15.00
2018-06-01T13:19:58.228Z,15.85
2018-06-01T13:22:25.688Z,19.10
2018-06-01T13:24:53.143Z,15.23
2018-06-01T13:27:20.581Z,14.47
2018-06-01T13:29:48.077Z,15.75
2018-06-01T13:32:15.521Z,16.00
2018-06-01T13:34:42.982Z,14.63
2018-06-01T13:37:10.417Z,14.07
2018-06-01T13:39:37.877Z,14.98
2018-06-01T13:42:05.353Z,14.70
2018-06-01T13:44:32.857Z,14.13
2018-06-01T13:47:01.070Z,16.80
2018-06-01T13:49:28.556Z,14.63
2018-06-01T13:51:55.996Z,15.13
2018-06-01T13:54:23.468Z,15.20
2018-06-01T13:56:50.933Z,16.52
2018-06-01T13:59:18.369Z,15.00
2018-06-01T14:01:45.910Z,17.00
2018-06-01T14:04:13.350Z,15.30
2018-06-01T14:06:40.814Z,17.08
2018-06-01T14:09:08.275Z,15.30
2018-06-01T14:11:35.756Z,15.23
2018-06-01T14:14:03.210Z,14.85
2018-06-01T14:16:30.643Z,15.40
2018-06-01T14:18:58.088Z,14.00
2018-06-01T14:21:25.522Z,14.50
2018-06-01T14:23:53.733Z,15.87
2018-06-01T14:26:21.169Z,14.23
2018-06-01T14:28:48.648Z,15.90
2018-06-01T14:31:16.064Z,16.05
2018-06-01T14:33:44.284Z,15.32
2018-06-01T14:36:11.764Z,15.07
2018-06-01T14:38:39.217Z,14.18
2018-06-01T14:41:07.635Z,14.00
2018-06-01T14:43:35.943Z,14.25
2018-06-01T14:46:03.525Z,15.50
2018-06-01T14:48:31.163Z,14.00
2018-06-01T14:50:58.726Z,14.57
2018-06-01T14:53:26.181Z,12.68
2018-06-01T14:55:53.742Z,16.02
2018-06-01T14:58:21.217Z,11.80
2018-06-01T15:00:48.675Z,10.97
2018-06-01T15:03:16.924Z,16.00
2018-06-01T15:05:44.352Z,10.90
2018-06-01T15:08:11.986Z,11.00
2018-06-01T15:10:39.419Z,10.30
2018-06-01T15:13:06.954Z,10.75
2018-06-01T15:15:34.398Z,13.60
2018-06-01T15:18:01.920Z,27.03
2018-06-01T15:20:29.425Z,11.05
2018-06-01T15:22:56.843Z,11.18
2018-06-01T15:25:25.158Z,11.98
2018-06-01T15:27:52.599Z,11.30
2018-06-01T15:30:20.028Z,11.50
2018-06-01T15:32:48.248Z,11.73
2018-06-01T15:35:15.680Z,10.20
2018-06-01T15:37:43.159Z,10.82
2018-06-01T15:40:10.636Z,10.48
2018-06-01T15:42:38.092Z,10.38
2018-06-01T15:45:05.721Z,10.57
2018-06-01T15:47:33.166Z,10.90
2018-06-01T15:50:01.436Z,11.95
2018-06-01T15:52:29.651Z,11.73
2018-06-01T15:54:57.076Z,16.27
2018-06-01T15:57:24.554Z,11.20
2018-06-01T15:59:52.110Z,10.50
2018-06-01T16:02:19.540Z,10.93
2018-06-01T16:04:47.169Z,11.20
2018-06-01T16:07:14.616Z,14.23
2018-06-01T16:09:42.141Z,17.47
2018-06-01T16:12:09.584Z,18.73
2018-06-01T16:14:37.044Z,19.33
2018-06-01T16:17:04.488Z,11.35
2018-06-01T16:19:31.949Z,13.10
2018-06-01T16:21:59.403Z,13.45
2018-06-01T16:24:26.865Z,14.32
2018-06-01T16:26:55.072Z,15.32
2018-06-01T16:29:22.540Z,14.60
2018-06-01T16:31:50.723Z,14.23
2018-06-01T16:34:18.264Z,14.40
2018-06-01T16:36:45.733Z,15.10
2018-06-01T16:39:13.216Z,15.45
2018-06-01T16:41:41.425Z,15.50
2018-06-01T16:44:08.980Z,16.80
2018-06-01T16:46:36.424Z,28.00
2018-06-01T16:49:03.901Z,14.43
2018-06-01T16:51:31.366Z,15.10
2018-06-01T16:53:58.821Z,15.02
2018-06-01T16:56:26.266Z,14.27
2018-06-01T16:58:53.831Z,13.60
2018-06-01T17:01:21.269Z,14.85
2018-06-01T17:03:49.162Z,14.07
2018-06-01T17:06:16.608Z,14.27
2018-06-01T17:08:44.115Z,14.50
2018-06-01T17:11:12.345Z,14.40
2018-06-01T17:13:39.810Z,14.38
2018-06-01T17:16:07.244Z,15.13
2018-06-01T17:18:34.737Z,14.85
2018-06-01T17:21:02.221Z,14.48
2018-06-01T17:23:30.453Z,15.13
2018-06-01T17:25:57.920Z,15.70
2018-06-01T17:28:25.404Z,15.38
2018-06-01T17:30:53.027Z,16.10
2018-06-01T17:33:20.494Z,17.00
2018-06-01T17:35:47.933Z,15.70
2018-06-01T17:38:16.477Z,16.23
2018-06-01T17:40:44.717Z,16.30
2018-06-01T17:43:12.187Z,16.55
2018-06-01T17:45:40.530Z,18.05
2018-06-01T17:48:07.990Z,16.85
2018-06-01T17:50:35.519Z,16.13
2018-06-01T17:53:02.998Z,16.00
2018-06-01T17:55:30.471Z,14.70
2018-06-01T17:57:57.966Z,14.70
2018-06-01T18:00:25.604Z,14.95
2018-06-01T18:02:53.102Z,15.60
2018-06-01T18:05:21.333Z,15.45
2018-06-01T18:07:48.811Z,15.10
2018-06-01T18:10:17.022Z,15.40
2018-06-01T18:12:44.496Z,13.75
2018-06-01T18:15:12.025Z,13.63
2018-06-01T18:17:40.302Z,13.40
2018-06-01T18:20:08.506Z,13.60
2018-06-01T18:22:36.035Z,13.85
2018-06-01T18:25:03.392Z,14.10
2018-06-01T18:27:30.837Z,13.40
2018-06-01T18:29:59.047Z,14.70
2018-06-01T18:32:26.547Z,14.40
2018-06-01T18:34:54.021Z,14.05
2018-06-01T18:37:22.257Z,14.73
2018-06-01T18:39:49.680Z,17.70
2018-06-01T18:42:17.148Z,18.20
2018-06-01T18:44:44.579Z,17.17
2018-06-01T18:47:12.037Z,19.87
2018-06-01T18:49:40.247Z,25.27
2018-06-01T18:52:07.792Z,20.23
2018-06-01T18:54:35.241Z,24.55
2018-06-01T18:57:02.691Z,26.77
2018-06-01T18:59:30.157Z,24.60
2018-06-01T19:01:58.528Z,24.55
2018-06-01T19:04:25.993Z,24.83
2018-06-01T19:06:53.425Z,27.80
2018-06-01T19:09:21.629Z,32.03
2018-06-01T19:11:49.072Z,29.55
2018-06-01T19:14:16.532Z,33.60
2018-06-01T19:16:44.096Z,41.03
2018-06-01T19:19:11.519Z,41.35
2018-06-01T19:21:39.754Z,39.67
2018-06-01T19:24:07.177Z,48.45
2018-06-01T19:26:34.636Z,44.15
2018-06-01T19:29:02.131Z,44.70
2018-06-01T19:31:29.532Z,43.55
2018-06-01T19:33:57.064Z,38.88
2018-06-01T19:36:24.543Z,26.95
2018-06-01T19:38:52.770Z,17.97
2018-06-01T19:41:20.213Z,13.15
2018-06-01T19:43:47.640Z,9.32
2018-06-01T19:46:15.085Z,12.27
2018-06-01T19:48:42.538Z,13.82
2018-06-01T19:51:10.750Z,15.40
2018-06-01T19:53:38.241Z,12.10
2018-06-01T19:56:05.688Z,16.17
2018-06-01T19:58:33.178Z,14.90
2018-06-01T20:01:00.648Z,14.43
2018-06-01T20:03:28.233Z,14.32
2018-06-01T20:05:55.661Z,15.98
2018-06-01T20:08:23.131Z,13.80
2018-06-01T20:10:50.570Z,16.80
2018-06-01T20:13:18.880Z,18.00
2018-06-01T20:15:46.349Z,15.70
2018-06-01T20:18:13.835Z,17.40
2018-06-01T20:20:41.284Z,15.13
2018-06-01T20:23:08.750Z,15.20
2018-06-01T20:25:36.193Z,16.58
2018-06-01T20:28:03.667Z,15.23
2018-06-01T20:30:31.090Z,15.60
2018-06-01T20:32:58.628Z,15.60
2018-06-01T20:35:26.187Z,18.55
2018-06-01T20:37:53.628Z,19.77
2018-06-01T20:40:21.206Z,20.53
2018-06-01T20:42:48.646Z,21.90
2018-06-01T20:45:16.154Z,19.10
2018-06-01T20:47:43.691Z,21.45
2018-06-01T20:50:11.133Z,23.08
2018-06-01T20:52:38.590Z,32.60
2018-06-01T20:55:06.031Z,24.40
2018-06-01T20:57:33.531Z,26.85
2018-06-01T21:00:01.029Z,26.12
2018-06-01T21:02:29.249Z,24.83
2018-06-01T21:04:56.813Z,26.97
2018-06-01T21:07:24.257Z,25.77
2018-06-01T21:09:51.712Z,38.07
2018-06-01T21:12:19.170Z,32.63
2018-06-01T21:14:46.624Z,24.90
2018-06-01T21:17:14.081Z,31.30
2018-06-01T21:19:41.538Z,27.67
2018-06-01T21:22:09.011Z,34.83
2018-06-01T21:24:36.476Z,25.90
2018-06-01T21:27:03.942Z,28.67
2018-06-01T21:29:31.445Z,27.27
2018-06-01T21:31:59.641Z,29.02
2018-06-01T21:34:27.197Z,28.10
2018-06-01T21:36:54.625Z,28.60
2018-06-01T21:39:22.063Z,29.75
2018-06-01T21:41:50.269Z,29.15
2018-06-01T21:44:17.777Z,28.75
2018-06-01T21:46:45.225Z,27.37
2018-06-01T21:49:12.689Z,29.42
2018-06-01T21:51:40.207Z,28.48
2018-06-01T21:54:07.643Z,28.48
2018-06-01T21:56:35.107Z,26.90
2018-06-01T21:59:02.554Z,27.70
2018-06-01T22:01:30.013Z,24.12
2018-06-01T22:03:58.237Z,22.60
2018-06-01T22:06:25.693Z,22.02
2018-06-01T22:08:53.156Z,21.98
2018-06-01T22:11:20.623Z,23.92
2018-06-01T22:13:48.061Z,24.80
2018-06-01T22:16:15.522Z,20.60
2018-06-01T22:18:42.990Z,23.65
2018-06-01T22:21:11.967Z,22.87
2018-06-01T22:23:39.432Z,23.62
2018-06-01T22:26:06.902Z,24.52
2018-06-01T22:28:34.353Z,23.60
2018-06-01T22:31:01.817Z,23.92
2018-06-01T22:33:29.356Z,24.58
2018-06-01T22:35:56.792Z,25.05
2018-06-01T22:38:24.234Z,26.50
2018-06-01T22:40:51.730Z,26.60
2018-06-01T22:43:19.162Z,29.17
2018-06-01T22:45:46.598Z,32.20
2018-06-01T22:48:14.036Z,30.60
2018-06-01T22:50:42.241Z,31.80
2018-06-01T22:53:09.701Z,32.25
2018-06-01T22:55:37.146Z,32.55
2018-06-01T22:58:04.601Z,32.28
2018-06-01T23:00:47.642Z,32.17
2018-06-01T23:03:15.102Z,31.73
2018-06-01T23:05:42.555Z,39.90
2018-06-01T23:08:10.009Z,37.88
2018-06-01T23:10:37.450Z,37.03
2018-06-01T23:13:04.914Z,37.40
2018-06-01T23:15:32.370Z,36.27
2018-06-01T23:17:59.827Z,35.22
2018-06-01T23:20:27.257Z,37.37
2018-06-01T23:22:54.697Z,36.97
2018-06-01T23:25:22.902Z,36.75
2018-06-01T23:27:50.344Z,37.50
2018-06-01T23:30:17.790Z,43.67
2018-06-01T23:32:46.103Z,43.27
2018-06-01T23:35:13.558Z,40.05
2018-06-01T23:37:41.014Z,42.00
2018-06-01T23:40:08.720Z,41.50
2018-06-01T23:42:36.158Z,41.20
2018-06-01T23:45:03.610Z,38.42
2018-06-01T23:47:31.053Z,37.63
2018-06-01T23:49:58.500Z,38.97
2018-06-01T23:52:25.963Z,42.00
2018-06-01T23:54:53.396Z,43.63
2018-06-01T23:57:20.841Z,43.95
2018-06-01T23:59:49.049Z,42.88
